Time;durP1;ratioP1;P1;durP2;ratioP2;P2;SDS_P1;SDS_P2;PMS_P1;PMS_P2;Temp;Humidity;BMP_temperature;BMP_pressure;BME280_temperature;BME280_humidity;BME280_pressure;Samples;Min_cycle;Max_cycle;Signal;HPM_P1;HPM_P2
2022/10/06 00:02:56;;;;;;;20.50;3.88;;;20.40;61.60;;;;;;6217090;28;20126;-76
2022/10/06 00:06:02;;;;;;;6.68;4.35;;;20.40;61.80;;;;;;6213716;28;20034;-76
2022/10/06 00:09:03;;;;;;;9.93;4.00;;;20.40;62.00;;;;;;6217390;28;20137;-76
2022/10/06 00:12:05;;;;;;;10.80;4.72;;;20.40;62.20;;;;;;6212602;28;20048;-76
2022/10/06 00:15:07;;;;;;;15.65;5.03;;;20.30;62.40;;;;;;6225293;28;20348;-76
2022/10/06 00:18:08;;;;;;;12.75;5.07;;;20.30;62.60;;;;;;6233943;28;20038;-76
2022/10/06 00:21:09;;;;;;;8.57;4.30;;;20.20;62.60;;;;;;6237488;28;20046;-76
2022/10/06 00:24:10;;;;;;;10.13;4.55;;;20.20;62.80;;;;;;6238204;28;20504;-76
2022/10/06 00:27:12;;;;;;;13.45;4.38;;;20.20;63.00;;;;;;6241285;28;20041;-75
2022/10/06 00:30:16;;;;;;;7.70;3.80;;;20.10;62.90;;;;;;6243583;28;20037;-75
2022/10/06 00:33:18;;;;;;;12.05;4.57;;;20.10;63.00;;;;;;6220933;28;20146;-75
2022/10/06 00:36:20;;;;;;;13.82;3.70;;;20.10;62.90;;;;;;6218047;28;20030;-75
2022/10/06 00:39:21;;;;;;;8.07;3.42;;;20.10;63.00;;;;;;6218872;28;20467;-76
2022/10/06 00:42:30;;;;;;;7.57;4.50;;;20.00;62.80;;;;;;6213760;28;20061;-75
2022/10/06 00:45:37;;;;;;;19.58;4.82;;;20.00;62.90;;;;;;6231604;28;20106;-76
2022/10/06 00:48:39;;;;;;;10.10;3.80;;;19.90;62.90;;;;;;6208528;28;20049;-75
2022/10/06 00:51:46;;;;;;;12.70;4.80;;;19.90;63.00;;;;;;6230825;28;20052;-76
2022/10/06 00:54:48;;;;;;;9.50;3.97;;;19.90;63.20;;;;;;6239288;28;20048;-75
2022/10/06 00:57:51;;;;;;;11.75;4.47;;;19.80;63.30;;;;;;6225381;28;20050;-76
2022/10/06 01:00:54;;;;;;;7.97;3.75;;;19.80;63.60;;;;;;6226357;28;20041;-75
2022/10/06 01:04:01;;;;;;;12.65;4.03;;;19.70;63.70;;;;;;6220492;28;20042;-76
2022/10/06 01:07:03;;;;;;;15.80;4.85;;;19.70;63.80;;;;;;6241078;28;20060;-76
2022/10/06 01:10:04;;;;;;;9.45;4.22;;;19.70;63.90;;;;;;6242293;28;20120;-76
2022/10/06 01:13:06;;;;;;;11.45;4.22;;;19.70;64.00;;;;;;6235873;28;20116;-76
2022/10/06 01:16:16;;;;;;;7.95;3.83;;;19.70;64.10;;;;;;6235092;28;20037;-76
2022/10/06 01:19:36;;;;;;;12.13;4.45;;;19.60;64.20;;;;;;6240653;28;20532;-76
2022/10/06 01:22:58;;;;;;;11.18;4.15;;;19.60;64.30;;;;;;6240885;28;20041;-76
2022/10/06 01:26:03;;;;;;;13.15;4.72;;;19.60;64.60;;;;;;6240883;28;20164;-76
2022/10/06 01:29:04;;;;;;;9.75;4.10;;;19.60;64.50;;;;;;6220196;28;20116;-76
2022/10/06 01:32:06;;;;;;;15.13;4.53;;;19.60;64.60;;;;;;6224412;28;20034;-76
2022/10/06 01:35:09;;;;;;;9.30;4.22;;;19.60;64.60;;;;;;6235010;28;20052;-76
2022/10/06 01:38:10;;;;;;;9.57;3.95;;;19.60;64.70;;;;;;6230593;28;20045;-76
2022/10/06 01:41:11;;;;;;;12.45;4.75;;;19.60;64.70;;;;;;6239813;28;20146;-75
2022/10/06 01:44:13;;;;;;;8.40;4.90;;;19.60;64.60;;;;;;6219779;28;20042;-76
2022/10/06 01:47:14;;;;;;;8.98;4.68;;;19.60;64.70;;;;;;6211461;28;20053;-76
2022/10/06 01:50:16;;;;;;;10.48;5.20;;;19.60;64.70;;;;;;6212171;28;20096;-76
2022/10/06 01:53:17;;;;;;;9.23;5.00;;;19.60;64.80;;;;;;6199358;28;20419;-76
2022/10/06 01:56:19;;;;;;;23.10;5.05;;;19.60;65.00;;;;;;6218751;28;20048;-76
2022/10/06 01:59:21;;;;;;;10.65;5.32;;;19.60;65.10;;;;;;6231648;28;20362;-76
2022/10/06 02:02:22;;;;;;;14.57;5.70;;;19.60;65.30;;;;;;6238432;28;20052;-76
2022/10/06 02:05:23;;;;;;;12.30;5.15;;;19.60;65.30;;;;;;6227162;28;20056;-76
2022/10/06 02:08:26;;;;;;;9.68;4.70;;;19.60;65.30;;;;;;6241553;28;20040;-76
2022/10/06 02:11:30;;;;;;;12.02;4.95;;;19.60;65.40;;;;;;6236534;28;20045;-76
2022/10/06 02:14:33;;;;;;;11.25;4.50;;;19.50;65.50;;;;;;6201244;28;20038;-76
2022/10/06 02:17:34;;;;;;;8.00;4.88;;;19.50;65.70;;;;;;6222419;28;20379;-76
2022/10/06 02:20:35;;;;;;;13.32;4.45;;;19.50;65.90;;;;;;6216416;28;20077;-76
2022/10/06 02:23:36;;;;;;;8.05;4.10;;;19.40;65.90;;;;;;6209129;28;20053;-76
2022/10/06 02:26:37;;;;;;;9.88;4.45;;;19.40;66.20;;;;;;6192149;28;20034;-76
2022/10/06 02:29:39;;;;;;;7.72;4.45;;;19.30;66.20;;;;;;6193893;28;20049;-76
2022/10/06 02:32:41;;;;;;;11.52;4.15;;;19.30;66.20;;;;;;6216183;28;20041;-76
2022/10/06 02:35:44;;;;;;;6.80;4.13;;;19.20;66.20;;;;;;6229228;28;20030;-76
2022/10/06 02:38:46;;;;;;;8.73;3.78;;;19.10;66.10;;;;;;6233688;28;20041;-76
2022/10/06 02:41:47;;;;;;;9.35;4.45;;;19.20;66.30;;;;;;6229967;28;20041;-76
2022/10/06 02:44:50;;;;;;;7.55;4.20;;;19.10;66.30;;;;;;6242010;28;20077;-76
2022/10/06 02:47:53;;;;;;;9.07;4.50;;;19.10;66.40;;;;;;6229721;28;20124;-76
2022/10/06 02:50:56;;;;;;;11.55;4.47;;;19.00;66.50;;;;;;6224594;28;20041;-76
2022/10/06 02:53:57;;;;;;;12.13;4.00;;;19.00;66.60;;;;;;6229053;28;20100;-76
2022/10/06 02:56:58;;;;;;;9.88;4.55;;;19.00;66.90;;;;;;6216648;28;20116;-76
2022/10/06 02:59:59;;;;;;;18.02;4.85;;;18.90;66.90;;;;;;6237554;28;20044;-76
2022/10/06 03:03:02;;;;;;;10.63;4.53;;;18.90;67.10;;;;;;6238688;28;20120;-76
2022/10/06 03:06:05;;;;;;;8.68;3.90;;;18.90;67.20;;;;;;6243599;28;20347;-75
2022/10/06 03:09:08;;;;;;;11.32;4.28;;;18.80;67.30;;;;;;6237927;28;20026;-75
2022/10/06 03:12:11;;;;;;;11.00;4.18;;;18.80;67.50;;;;;;6246322;28;20036;-75
2022/10/06 03:15:17;;;;;;;17.15;5.43;;;18.80;67.50;;;;;;6231938;28;20049;-76
2022/10/06 03:18:18;;;;;;;9.70;5.03;;;18.80;67.50;;;;;;6244167;28;20025;-76
2022/10/06 03:21:25;;;;;;;8.77;5.03;;;18.80;67.60;;;;;;6230941;28;20124;-76
2022/10/06 03:24:26;;;;;;;13.57;4.97;;;18.70;67.60;;;;;;6247948;28;20112;-76
2022/10/06 03:27:30;;;;;;;17.52;5.13;;;18.70;67.60;;;;;;6255439;28;20099;-76
2022/10/06 03:30:35;;;;;;;8.93;4.43;;;18.70;67.60;;;;;;6225045;28;20042;-76
2022/10/06 03:33:37;;;;;;;8.48;4.85;;;18.70;67.80;;;;;;6237998;28;20068;-77
2022/10/06 03:36:38;;;;;;;13.20;4.57;;;18.60;67.60;;;;;;6250361;28;20053;-76
2022/10/06 03:39:40;;;;;;;19.75;4.75;;;18.60;67.60;;;;;;6250367;28;20038;-76
2022/10/06 03:42:41;;;;;;;7.55;4.32;;;18.60;67.70;;;;;;6249725;28;20123;-76
2022/10/06 03:45:43;;;;;;;12.25;4.90;;;18.60;67.60;;;;;;6250209;28;20045;-76
2022/10/06 03:48:44;;;;;;;11.70;4.65;;;18.50;67.50;;;;;;6220212;28;20439;-76
2022/10/06 03:51:45;;;;;;;7.70;4.32;;;18.50;67.70;;;;;;6227462;28;20107;-76
2022/10/06 03:54:54;;;;;;;26.05;5.13;;;18.50;67.80;;;;;;6260536;28;20033;-76
2022/10/06 03:57:56;;;;;;;11.02;4.90;;;18.40;67.90;;;;;;6235014;28;20037;-76
2022/10/06 04:01:05;;;;;;;10.73;4.47;;;18.40;68.10;;;;;;6249679;28;20045;-76
2022/10/06 04:04:06;;;;;;;;;;;18.40;68.20;;;;;;6211118;28;20045;-76
2022/10/06 04:07:07;;;;;;;11.43;4.47;;;18.50;68.20;;;;;;6248830;28;19913;-78
2022/10/06 04:10:09;;;;;;;10.55;4.85;;;18.30;67.80;;;;;;6249589;28;20033;-75
2022/10/06 04:13:10;;;;;;;11.63;4.55;;;18.50;68.00;;;;;;6249180;28;20037;-75
2022/10/06 04:16:22;;;;;;;14.10;4.88;;;18.50;68.00;;;;;;6248403;28;20374;-75
2022/10/06 04:19:24;;;;;;;10.75;4.95;;;18.40;67.90;;;;;;6240273;28;20037;-76
2022/10/06 04:22:28;;;;;;;14.50;5.60;;;18.40;68.10;;;;;;6247421;28;20042;-76
2022/10/06 04:25:29;;;;;;;12.70;5.03;;;18.30;68.10;;;;;;6231076;28;20044;-75
2022/10/06 04:28:30;;;;;;;7.57;4.70;;;18.40;68.20;;;;;;6253998;28;20037;-76
2022/10/06 04:31:37;;;;;;;10.98;5.22;;;18.50;68.20;;;;;;6250116;28;20095;-76
2022/10/06 04:34:41;;;;;;;12.68;4.95;;;18.50;68.00;;;;;;6232515;28;20370;-75
2022/10/06 04:37:42;;;;;;;18.15;4.63;;;18.50;67.90;;;;;;6232330;28;20049;-75
2022/10/06 04:40:43;;;;;;;10.35;4.90;;;18.50;67.70;;;;;;6249894;28;20068;-76
2022/10/06 04:43:45;;;;;;;7.88;4.63;;;18.50;67.70;;;;;;6231785;28;20403;-76
2022/10/06 04:46:47;;;;;;;12.90;4.70;;;18.50;67.70;;;;;;6243201;28;20022;-75
2022/10/06 04:49:49;;;;;;;6.90;4.25;;;18.60;67.70;;;;;;6243377;28;20037;-76
2022/10/06 04:52:52;;;;;;;8.02;4.13;;;18.50;67.70;;;;;;6248668;28;20037;-76
2022/10/06 04:56:11;;;;;;;10.40;4.82;;;18.50;67.80;;;;;;6248889;28;20030;-75
2022/10/06 04:59:13;;;;;;;11.70;4.35;;;18.50;68.00;;;;;;6245727;28;20042;-76
2022/10/06 05:02:17;;;;;;;7.88;4.38;;;18.40;67.90;;;;;;6214732;28;20029;-76
2022/10/06 05:05:20;;;;;;;17.85;5.30;;;18.30;67.90;;;;;;6228962;28;20064;-76
2022/10/06 05:08:22;;;;;;;11.13;5.15;;;18.30;68.00;;;;;;6221133;28;20072;-76
2022/10/06 05:11:23;;;;;;;11.60;5.65;;;18.30;68.10;;;;;;6204058;28;20030;-76
2022/10/06 05:14:24;;;;;;;11.50;4.63;;;18.30;68.10;;;;;;6226748;28;20026;-76
2022/10/06 05:17:27;;;;;;;9.77;4.47;;;18.20;68.20;;;;;;6227393;28;20030;-76
2022/10/06 05:20:28;;;;;;;19.55;5.30;;;18.20;68.30;;;;;;6232598;28;20096;-76
2022/10/06 05:23:32;;;;;;;14.48;5.00;;;18.20;68.30;;;;;;6228336;28;20148;-75
2022/10/06 05:26:34;;;;;;;9.27;4.90;;;18.20;68.30;;;;;;6237790;28;20466;-76
2022/10/06 05:29:38;;;;;;;9.20;4.63;;;18.20;68.30;;;;;;6245935;28;20506;-75
2022/10/06 05:32:45;;;;;;;13.55;4.47;;;18.20;68.20;;;;;;6224998;28;20172;-75
2022/10/06 05:35:54;;;;;;;8.95;4.95;;;18.10;68.30;;;;;;6235310;28;20423;-75
2022/10/06 05:38:56;;;;;;;11.45;5.43;;;18.10;68.30;;;;;;6245990;28;20121;-75
2022/10/06 05:41:58;;;;;;;10.00;4.70;;;18.10;68.40;;;;;;6227748;28;20029;-75
2022/10/06 05:45:01;;;;;;;9.10;5.20;;;18.10;68.40;;;;;;6245962;28;20052;-75
2022/10/06 05:48:03;;;;;;;16.95;5.40;;;18.10;68.50;;;;;;6229422;28;20037;-76
2022/10/06 05:51:08;;;;;;;9.85;4.95;;;18.10;68.50;;;;;;6245540;28;20033;-76
2022/10/06 05:54:13;;;;;;;7.00;4.25;;;18.10;68.60;;;;;;6228721;28;20454;-75
2022/10/06 05:57:14;;;;;;;11.45;4.85;;;18.10;68.50;;;;;;6249288;28;20029;-75
2022/10/06 06:00:16;;;;;;;12.32;5.18;;;18.10;68.30;;;;;;6244879;28;20387;-76
2022/10/06 06:03:19;;;;;;;10.80;4.65;;;18.10;68.20;;;;;;6227428;28;20036;-76
2022/10/06 06:06:36;;;;;;;7.57;4.13;;;18.20;68.20;;;;;;6216723;28;20034;-76
2022/10/06 06:09:40;;;;;;;9.07;4.65;;;18.20;68.00;;;;;;6219564;28;20084;-75
2022/10/06 06:12:41;;;;;;;11.90;4.55;;;18.30;68.00;;;;;;6217515;28;20336;-75
2022/10/06 06:16:13;;;;;;;10.32;4.47;;;18.30;67.90;;;;;;6223204;28;20030;-75
2022/10/06 06:19:14;;;;;;;12.38;5.47;;;18.40;67.80;;;;;;6217251;28;20359;-75
2022/10/06 06:22:17;;;;;;;9.73;4.70;;;18.40;67.60;;;;;;6228973;28;20451;-75
2022/10/06 06:25:21;;;;;;;9.00;4.22;;;18.40;67.60;;;;;;6220002;28;20034;-76
2022/10/06 06:28:22;;;;;;;10.13;4.38;;;18.50;67.50;;;;;;6244595;28;20041;-75
2022/10/06 06:31:26;;;;;;;9.80;4.60;;;18.50;67.40;;;;;;6244355;28;20099;-76
2022/10/06 06:34:28;;;;;;;9.73;4.32;;;18.60;67.40;;;;;;6244038;28;20458;-75
2022/10/06 06:37:31;;;;;;;12.57;4.95;;;18.60;67.30;;;;;;6243849;28;20042;-75
2022/10/06 06:40:33;;;;;;;13.32;5.38;;;18.60;67.10;;;;;;6227856;28;20041;-76
2022/10/06 06:43:34;;;;;;;8.20;4.50;;;18.70;67.10;;;;;;6225087;28;20053;-76
2022/10/06 06:46:54;;;;;;;17.17;5.55;;;18.80;67.00;;;;;;6245668;28;20507;-76
2022/10/06 06:49:58;;;;;;;12.60;5.47;;;18.80;66.80;;;;;;6244304;28;20106;-76
2022/10/06 06:53:01;;;;;;;11.88;5.53;;;18.90;66.60;;;;;;6226694;28;20491;-76
2022/10/06 06:56:05;;;;;;;13.57;5.20;;;19.00;66.40;;;;;;6244962;28;20362;-76
2022/10/06 06:59:09;;;;;;;12.80;4.95;;;19.10;66.10;;;;;;6228768;28;20458;-76
2022/10/06 07:02:11;;;;;;;9.73;4.90;;;19.10;66.00;;;;;;6243966;28;20481;-75
2022/10/06 07:05:14;;;;;;;9.90;4.65;;;19.10;65.70;;;;;;6235485;28;20084;-75
2022/10/06 07:08:19;;;;;;;11.27;5.30;;;19.00;65.80;;;;;;6217426;28;20435;-76
2022/10/06 07:11:26;;;;;;;12.60;4.80;;;19.00;65.70;;;;;;6231744;28;20026;-76
2022/10/06 07:14:28;;;;;;;14.25;4.28;;;19.00;65.70;;;;;;6218063;28;20042;-76
2022/10/06 07:27:29;;;;;;;13.60;5.03;;;19.00;65.50;;;;;;6253857;28;20554;-76
2022/10/06 07:30:30;;;;;;;11.48;4.68;;;19.00;65.50;;;;;;6249042;28;20381;-76
2022/10/06 07:33:35;;;;;;;11.77;4.70;;;19.00;65.40;;;;;;6248071;28;20040;-76
2022/10/06 07:36:39;;;;;;;17.83;6.53;;;19.10;65.40;;;;;;6245943;28;20053;-76
2022/10/06 07:39:40;;;;;;;9.70;4.50;;;19.10;65.00;;;;;;6207802;28;20042;-76
2022/10/06 07:42:48;;;;;;;11.23;5.00;;;19.10;64.90;;;;;;6248525;28;20041;-76
2022/10/06 07:46:12;;;;;;;14.98;4.32;;;19.30;65.00;;;;;;6244531;28;20407;-76
2022/10/06 07:49:20;;;;;;;13.00;4.95;;;19.40;64.60;;;;;;6238721;28;21329;-76
2022/10/06 07:52:21;;;;;;;11.15;4.68;;;19.50;64.20;;;;;;6244871;28;20466;-76
2022/10/06 07:55:27;;;;;;;14.50;4.50;;;19.50;64.20;;;;;;6245159;28;20033;-77
2022/10/06 07:58:55;;;;;;;10.55;5.50;;;19.70;63.90;;;;;;6239999;28;20068;-76
2022/10/06 08:01:56;;;;;;;16.02;5.28;;;19.80;63.60;;;;;;6248294;28;20537;-76
2022/10/06 08:04:57;;;;;;;10.65;5.20;;;19.90;63.30;;;;;;6228625;28;20043;-76
2022/10/06 08:07:58;;;;;;;14.52;5.80;;;20.10;63.00;;;;;;6246193;28;20033;-77
2022/10/06 08:10:59;;;;;;;13.75;5.55;;;20.20;62.80;;;;;;6228032;28;20108;-77
2022/10/06 08:14:00;;;;;;;17.83;5.70;;;20.30;62.60;;;;;;6247912;28;20033;-76
2022/10/06 08:17:01;;;;;;;17.95;5.20;;;20.40;62.30;;;;;;6245389;28;20430;-76
2022/10/06 08:20:04;;;;;;;12.77;5.30;;;20.60;62.00;;;;;;6220931;28;20034;-76
2022/10/06 08:23:07;;;;;;;18.88;5.40;;;20.70;61.60;;;;;;6222488;28;20133;-76
2022/10/06 08:26:13;;;;;;;16.75;5.50;;;20.80;61.20;;;;;;6209957;28;20057;-76
2022/10/06 08:29:14;;;;;;;13.80;4.45;;;20.90;60.60;;;;;;6235332;28;20040;-77
2022/10/06 08:32:16;;;;;;;13.50;5.35;;;21.00;60.40;;;;;;6224342;28;20029;-78
2022/10/06 08:35:17;;;;;;;10.35;5.22;;;21.10;60.20;;;;;;6214573;28;20023;-77
2022/10/06 08:38:18;;;;;;;10.98;5.38;;;21.20;60.00;;;;;;6232509;28;20041;-77
2022/10/06 08:41:31;;;;;;;13.25;5.10;;;21.20;59.90;;;;;;6233140;28;20074;-76
2022/10/06 08:44:39;;;;;;;9.80;4.32;;;21.30;59.60;;;;;;6205663;28;20041;-76
2022/10/06 08:47:45;;;;;;;;;;;21.50;59.40;;;;;;6240508;28;20069;-77
2022/10/06 08:51:28;;;;;;;11.35;5.20;;;21.60;59.20;;;;;;6243163;28;20004;-77
2022/10/06 08:54:40;;;;;;;10.60;4.80;;;21.70;58.90;;;;;;6244445;28;20030;-77
2022/10/06 08:57:50;;;;;;;11.63;5.80;;;21.80;59.20;;;;;;6258349;28;20045;-76
2022/10/06 09:00:55;;;;;;;12.02;5.30;;;21.80;58.40;;;;;;6225037;28;20037;-76
2022/10/06 09:04:02;;;;;;;8.93;5.35;;;21.90;58.40;;;;;;6220096;28;20038;-77
2022/10/06 09:07:20;;;;;;;12.63;4.22;;;22.00;58.20;;;;;;6204160;28;20433;-77
2022/10/06 09:10:34;;;;;;;7.25;4.38;;;22.00;57.80;;;;;;6217351;28;20049;-77
2022/10/06 09:13:44;;;;;;;9.95;4.40;;;22.10;57.50;;;;;;6203435;28;20038;-77
2022/10/06 09:16:52;;;;;;;22.77;9.65;;;22.20;57.40;;;;;;6220829;28;20026;-77
2022/10/06 09:20:01;;;;;;;22.90;9.57;;;22.30;57.30;;;;;;6242755;28;20315;-76
2022/10/06 09:23:13;;;;;;;11.18;5.22;;;22.50;56.90;;;;;;6238057;28;20481;-76
2022/10/06 09:26:21;;;;;;;18.55;5.13;;;22.50;56.90;;;;;;6244517;28;20521;-77
2022/10/06 09:29:22;;;;;;;12.15;4.00;;;22.60;56.70;;;;;;6244422;28;20064;-77
2022/10/06 09:32:27;;;;;;;11.75;4.22;;;22.60;56.60;;;;;;6243591;28;20092;-76
2022/10/06 09:35:30;;;;;;;24.13;9.50;;;22.70;56.40;;;;;;6245420;28;20048;-76
2022/10/06 09:38:54;;;;;;;12.85;6.75;;;22.70;56.30;;;;;;6244444;28;20442;-76
2022/10/06 09:41:55;;;;;;;12.52;5.80;;;22.80;56.20;;;;;;6219266;28;20445;-76
2022/10/06 09:45:22;;;;;;;9.07;4.45;;;22.90;55.80;;;;;;6219006;28;20034;-77
2022/10/06 09:48:26;;;;;;;10.40;4.35;;;22.90;55.50;;;;;;6227723;28;20033;-77
2022/10/06 09:51:32;;;;;;;9.45;4.22;;;23.00;55.30;;;;;;6244139;28;20036;-78
2022/10/06 09:54:33;;;;;;;6.85;3.60;;;23.00;55.20;;;;;;6242447;28;20375;-76
2022/10/06 09:57:36;;;;;;;8.02;3.88;;;23.00;55.00;;;;;;6245325;28;20122;-76
2022/10/06 10:00:46;;;;;;;6.30;3.08;;;23.10;54.90;;;;;;6243229;28;20099;-77
2022/10/06 10:04:07;;;;;;;9.63;4.13;;;23.20;54.60;;;;;;6234522;28;20108;-76
2022/10/06 10:07:14;;;;;;;14.30;3.80;;;23.30;54.30;;;;;;6240336;28;20052;-77
2022/10/06 10:10:23;;;;;;;8.68;3.75;;;23.30;53.90;;;;;;6225954;28;20029;-77
2022/10/06 10:13:25;;;;;;;8.13;3.53;;;23.40;53.80;;;;;;6225143;28;20040;-76
2022/10/06 10:16:33;;;;;;;8.68;3.78;;;23.60;53.60;;;;;;6219260;28;20463;-77
2022/10/06 10:19:42;;;;;;;9.47;3.83;;;23.70;53.20;;;;;;6240256;28;20069;-77
2022/10/06 10:22:46;;;;;;;10.73;3.95;;;23.90;52.70;;;;;;6240463;28;20144;-77
2022/10/06 10:26:08;;;;;;;5.35;3.13;;;24.10;52.40;;;;;;6241961;28;20041;-77
2022/10/06 10:29:39;;;;;;;11.50;3.80;;;24.40;51.90;;;;;;6242591;28;20029;-77
2022/10/06 10:33:02;;;;;;;9.48;4.45;;;24.70;51.30;;;;;;6225006;28;20109;-78
2022/10/06 10:36:07;;;;;;;7.05;3.13;;;24.90;50.80;;;;;;6237273;28;20184;-76
2022/10/06 10:39:16;;;;;;;10.18;3.70;;;25.20;50.30;;;;;;6231999;28;20167;-76
2022/10/06 10:42:22;;;;;;;5.75;3.22;;;25.40;49.90;;;;;;6234695;28;20081;-75
2022/10/06 10:45:25;;;;;;;6.35;3.20;;;25.60;49.60;;;;;;6213801;28;20487;-77
2022/10/06 10:48:54;;;;;;;4.88;3.13;;;25.80;49.20;;;;;;6210703;28;20040;-77
2022/10/06 10:52:24;;;;;;;14.88;3.20;;;26.00;48.60;;;;;;6237279;28;20435;-76
2022/10/06 10:55:38;;;;;;;6.97;2.95;;;26.20;48.40;;;;;;6245350;28;20346;-76
2022/10/06 10:58:42;;;;;;;7.95;2.85;;;26.30;48.20;;;;;;6246908;28;20041;-75
2022/10/06 11:01:54;;;;;;;7.53;3.10;;;26.50;47.80;;;;;;6228863;28;20104;-76
2022/10/06 11:05:04;;;;;;;18.20;3.35;;;26.70;47.40;;;;;;6241532;28;20041;-77
2022/10/06 11:08:48;;;;;;;6.80;2.65;;;26.90;46.90;;;;;;6245655;28;20099;-77
2022/10/06 11:12:08;;;;;;;6.18;2.78;;;27.10;46.50;;;;;;6243206;28;20033;-77
2022/10/06 11:15:18;;;;;;;6.50;2.47;;;27.30;46.50;;;;;;6213493;28;20073;-78
2022/10/06 11:18:31;;;;;;;10.02;2.33;;;27.60;46.00;;;;;;6230621;28;20041;-76
2022/10/06 11:21:35;;;;;;;4.60;1.92;;;27.70;45.50;;;;;;6225953;28;20110;-77
2022/10/06 11:24:45;;;;;;;6.60;2.78;;;27.90;45.40;;;;;;6226161;28;20037;-76
2022/10/06 11:27:54;;;;;;;5.35;2.10;;;28.10;45.10;;;;;;6228279;28;20463;-77
2022/10/06 11:31:05;;;;;;;5.72;2.42;;;28.30;44.60;;;;;;6211913;28;20060;-77
2022/10/06 11:34:08;;;;;;;10.35;2.58;;;28.40;44.20;;;;;;6244084;28;20033;-77
2022/10/06 11:37:39;;;;;;;5.70;2.47;;;28.70;43.80;;;;;;6215747;28;20371;-76
2022/10/06 11:41:06;;;;;;;10.85;2.65;;;28.90;43.30;;;;;;6202915;28;20123;-77
2022/10/06 11:44:12;;;;;;;10.25;2.17;;;29.00;42.80;;;;;;6235904;28;20033;-77
2022/10/06 11:47:49;;;;;;;5.00;2.55;;;29.20;42.60;;;;;;6222651;28;20049;-78
2022/10/06 11:50:54;;;;;;;6.88;2.38;;;29.40;42.10;;;;;;6152063;28;20042;-76
2022/10/06 11:53:55;;;;;;;10.10;2.00;;;29.70;41.70;;;;;;6154680;28;20098;-77
2022/10/06 11:56:56;;;;;;;6.45;2.13;;;30.00;41.30;;;;;;6190647;28;20035;-77
2022/10/06 12:00:15;;;;;;;9.05;2.63;;;30.30;40.80;;;;;;6171588;28;20365;-77
2022/10/06 12:03:34;;;;;;;3.92;2.55;;;30.60;40.30;;;;;;6180325;28;20039;-77
2022/10/06 12:06:40;;;;;;;;;;;30.90;39.60;;;;;;6168652;28;20096;-77
2022/10/06 12:09:45;;;;;;;8.30;2.60;;;31.20;38.90;;;;;;6153047;28;19918;-76
2022/10/06 12:12:52;;;;;;;9.02;2.63;;;31.50;38.20;;;;;;6168688;28;20042;-76
2022/10/06 12:16:02;;;;;;;8.43;2.63;;;31.70;37.80;;;;;;6153089;28;20039;-77
2022/10/06 12:19:31;;;;;;;6.18;2.20;;;32.10;37.30;;;;;;6167307;28;20573;-77
2022/10/06 12:23:03;;;;;;;4.60;2.33;;;32.40;36.70;;;;;;6183605;28;20133;-77
2022/10/06 12:26:04;;;;;;;11.77;2.42;;;32.80;36.00;;;;;;6175080;28;20381;-77
2022/10/06 12:29:30;;;;;;;2.83;1.80;;;33.20;35.30;;;;;;6217810;28;20210;-77
2022/10/06 12:32:56;;;;;;;9.45;2.00;;;33.40;34.40;;;;;;6253688;28;20308;-78
2022/10/06 12:36:02;;;;;;;3.35;2.10;;;33.30;34.30;;;;;;6211059;28;20065;-76
2022/10/06 12:39:23;;;;;;;7.43;2.33;;;32.90;34.70;;;;;;6218189;28;20125;-77
2022/10/06 12:42:30;;;;;;;4.15;2.50;;;32.80;34.80;;;;;;6217238;28;20463;-78
2022/10/06 12:45:31;;;;;;;6.70;1.65;;;32.70;34.70;;;;;;6225396;28;20486;-77
2022/10/06 12:48:50;;;;;;;5.18;2.03;;;32.60;34.70;;;;;;6216064;28;20722;-77
2022/10/06 12:51:53;;;;;;;4.75;1.85;;;32.60;34.50;;;;;;6230489;28;20124;-77
2022/10/06 12:55:08;;;;;;;5.13;1.65;;;32.20;34.80;;;;;;6241096;28;20518;-79
2022/10/06 12:58:18;;;;;;;8.10;1.70;;;31.80;35.50;;;;;;6243171;28;20029;-76
2022/10/06 13:01:21;;;;;;;6.85;1.90;;;31.10;36.40;;;;;;6240634;28;20351;-76
2022/10/06 13:04:58;;;;;;;6.55;2.53;;;30.60;37.10;;;;;;6201368;28;20046;-77
2022/10/06 13:08:01;;;;;;;2.38;1.80;;;30.00;37.90;;;;;;6212681;28;20041;-77
2022/10/06 13:11:20;;;;;;;5.18;1.83;;;29.60;38.50;;;;;;6217873;28;20057;-77
2022/10/06 13:14:21;;;;;;;4.57;1.60;;;29.30;39.10;;;;;;6190409;28;20041;-78
2022/10/06 13:17:22;;;;;;;4.38;1.58;;;29.10;39.40;;;;;;6216254;28;20068;-76
2022/10/06 13:20:32;;;;;;;3.67;1.58;;;28.90;39.70;;;;;;6201252;28;20776;-76
2022/10/06 13:23:36;;;;;;;3.38;1.50;;;28.60;40.10;;;;;;6200148;28;20041;-76
2022/10/06 13:26:39;;;;;;;5.82;1.70;;;28.50;40.60;;;;;;6222779;28;20040;-78
2022/10/06 13:29:40;;;;;;;2.75;1.70;;;28.40;40.90;;;;;;6217595;28;20054;-77
2022/10/06 13:32:42;;;;;;;6.07;1.58;;;28.20;41.10;;;;;;6209936;28;20191;-76
2022/10/06 13:35:43;;;;;;;7.75;1.83;;;28.10;41.40;;;;;;6216560;28;20029;-77
2022/10/06 13:38:45;;;;;;;2.75;1.50;;;28.10;41.60;;;;;;6217458;28;20062;-77
2022/10/06 13:41:53;;;;;;;1.90;1.60;;;28.00;41.80;;;;;;6216395;28;20038;-76
2022/10/06 13:44:58;;;;;;;5.47;1.90;;;28.00;42.10;;;;;;6197861;28;20044;-76
2022/10/06 13:48:20;;;;;;;4.15;1.92;;;27.90;42.30;;;;;;6218803;28;20095;-76
2022/10/06 13:51:28;;;;;;;3.55;1.67;;;27.80;42.50;;;;;;6232435;28;20038;-76
2022/10/06 13:54:38;;;;;;;8.75;2.30;;;27.70;42.50;;;;;;6220411;28;20108;-78
2022/10/06 13:57:46;;;;;;;3.75;1.80;;;27.60;42.70;;;;;;6209543;28;20057;-77
2022/10/06 14:00:59;;;;;;;5.03;1.55;;;27.50;42.90;;;;;;6216783;28;20041;-77
2022/10/06 14:04:19;;;;;;;3.92;1.70;;;27.30;43.20;;;;;;6229776;28;20034;-77
2022/10/06 14:07:20;;;;;;;4.95;1.60;;;27.20;43.50;;;;;;6242107;28;20151;-76
2022/10/06 14:10:38;;;;;;;5.07;1.50;;;27.10;43.70;;;;;;6246387;28;20037;-76
2022/10/06 14:13:56;;;;;;;5.03;1.93;;;27.10;44.10;;;;;;6227170;28;20044;-76
2022/10/06 14:16:57;;;;;;;8.05;1.88;;;27.00;44.20;;;;;;6243171;28;20422;-77
2022/10/06 14:19:58;;;;;;;2.53;1.65;;;26.90;44.40;;;;;;6230089;28;20555;-76
2022/10/06 14:22:59;;;;;;;8.82;1.90;;;26.80;44.50;;;;;;6226432;28;20073;-77
2022/10/06 14:26:01;;;;;;;4.72;2.10;;;26.80;44.70;;;;;;6239267;28;20163;-78
2022/10/06 14:29:02;;;;;;;4.47;1.75;;;26.80;44.70;;;;;;6243580;28;20041;-77
2022/10/06 14:32:14;;;;;;;5.38;1.60;;;26.70;44.80;;;;;;6241747;28;20057;-77
2022/10/06 14:35:15;;;;;;;4.20;1.92;;;26.80;44.90;;;;;;6241923;28;20045;-75
2022/10/06 14:38:18;;;;;;;10.18;1.92;;;26.70;44.90;;;;;;6241115;28;20426;-77
2022/10/06 14:41:26;;;;;;;3.80;1.60;;;26.70;45.00;;;;;;6241857;28;20099;-76
2022/10/06 14:44:27;;;;;;;7.20;1.58;;;26.70;45.20;;;;;;6238162;28;20539;-77
2022/10/06 14:47:29;;;;;;;9.13;1.60;;;26.60;45.30;;;;;;6238980;28;20156;-76
2022/10/06 14:50:30;;;;;;;8.82;2.20;;;26.50;45.40;;;;;;6228500;28;20045;-76
2022/10/06 14:53:31;;;;;;;6.50;2.20;;;26.50;45.50;;;;;;6240106;28;20455;-76
2022/10/06 14:56:36;;;;;;;10.93;2.08;;;26.50;45.70;;;;;;6244283;28;20033;-78
2022/10/06 14:59:37;;;;;;;8.70;2.08;;;26.40;45.70;;;;;;6238271;28;20096;-76
2022/10/06 15:02:38;;;;;;;6.07;1.95;;;26.40;45.80;;;;;;6236953;28;20045;-76
2022/10/06 15:08:08;;;;;;;3.45;1.70;;;26.40;45.80;;;;;;6240355;28;20226;-76
2022/10/06 15:09:00;;;;;;;9.68;1.73;;;26.30;45.90;;;;;;6240583;28;20485;-77
2022/10/06 15:12:02;;;;;;;2.97;1.80;;;26.20;46.00;;;;;;6241706;28;20037;-76
2022/10/06 15:15:06;;;;;;;3.80;1.60;;;26.20;46.20;;;;;;6243530;28;20095;-75
2022/10/06 15:18:07;;;;;;;6.93;2.05;;;26.20;46.80;;;;;;6217024;28;20096;-77
2022/10/06 15:21:10;;;;;;;7.30;1.85;;;26.20;46.20;;;;;;6235268;28;20099;-77
2022/10/06 15:24:14;;;;;;;5.15;1.70;;;26.20;46.20;;;;;;6241426;28;20044;-77
2022/10/06 15:30:39;;;;;;;2.88;1.58;;;26.30;46.20;;;;;;6244947;28;20046;-77
2022/10/06 15:33:40;;;;;;;6.65;2.10;;;26.20;46.80;;;;;;6242090;28;20128;-76
2022/10/06 15:36:42;;;;;;;6.85;2.22;;;26.20;46.20;;;;;;6243027;28;20056;-76
2022/10/06 15:39:45;;;;;;;12.32;1.80;;;26.20;46.30;;;;;;6245932;28;20053;-78
2022/10/06 15:42:48;;;;;;;3.65;2.05;;;26.20;46.50;;;;;;6229498;28;20061;-76
2022/10/06 15:45:54;;;;;;;4.90;1.92;;;26.10;46.60;;;;;;6242986;28;20124;-76
2022/10/06 15:49:00;;;;;;;6.88;1.90;;;26.00;46.70;;;;;;6252624;28;20037;-78
2022/10/06 15:52:02;;;;;;;14.63;1.88;;;26.00;46.90;;;;;;6246103;28;20120;-76
2022/10/06 15:55:04;;;;;;;9.70;2.20;;;26.00;47.00;;;;;;6240402;28;20116;-76
2022/10/06 15:58:05;;;;;;;4.18;1.77;;;25.90;47.00;;;;;;6239448;28;20124;-76
2022/10/06 16:01:10;;;;;;;5.85;2.08;;;25.90;47.20;;;;;;6246400;28;20044;-76
2022/10/06 16:07:44;;;;;;;3.22;1.65;;;25.90;47.40;;;;;;6183861;28;20046;-76
2022/10/06 16:10:49;;;;;;;11.90;2.30;;;25.80;47.50;;;;;;6178750;28;20034;-77
2022/10/06 16:13:51;;;;;;;11.07;2.35;;;25.90;47.70;;;;;;6199657;28;20114;-77
2022/10/06 16:16:55;;;;;;;6.53;2.15;;;25.70;47.70;;;;;;6203763;28;20068;-77
2022/10/06 16:19:56;;;;;;;5.82;1.98;;;25.70;47.90;;;;;;6206270;28;20034;-76
2022/10/06 16:22:57;;;;;;;7.38;2.03;;;25.60;48.00;;;;;;6200437;28;20046;-77